| Date | Time | Temp. (oF) | Dew Point (oF) | Rel. Hum. (%) | Press. (in.) | Wind Dir. | Wind Speed (mph) | Hourly Rainfall (in.) |
|
|---|---|---|---|---|---|---|---|---|---|
| 1 | 08/06 | 00:00 | 77 | 73 | 90 | 29.69 | WSW | 4 | 0.00 |
| 2 | 08/05 | 23:00 | 78 | 74 | 88 | 29.69 | WSW | 0 | 0.00 |
| 3 | 08/05 | 22:00 | 79 | 74 | 86 | 29.67 | SW | 2 | 0.00 |
| 4 | 08/05 | 21:00 | 81 | 74 | 81 | 29.66 | SSW | 5 | 0.00 |
| 5 | 08/05 | 20:00 | 86 | 74 | 69 | 29.64 | SSW | 3 | 0.00 |
| 6 | 08/05 | 19:00 | 87 | 71 | 61 | 29.62 | SW | 2 | 0.00 |
| 7 | 08/05 | 18:00 | 89 | 73 | 60 | 29.64 | SW | 4 | 0.00 |
| 8 | 08/05 | 17:00 | 87 | 74 | 67 | 29.65 | SSW | 5 | 0.00 |
| 9 | 08/05 | 16:00 | 89 | 75 | 64 | 29.65 | SSW | 6 | 0.00 |
| 10 | 08/05 | 15:00 | 88 | 73 | 63 | 29.68 | SW | 1 | 0.00 |
| 11 | 08/05 | 14:00 | 85 | 70 | 63 | 29.71 | WNW | 5 | 0.00 |
| 12 | 08/05 | 13:00 | 83 | 71 | 68 | 29.72 | SW | 6 | 0.00 |
| 13 | 08/05 | 12:00 | 82 | 70 | 69 | 29.73 | SW | 6 | 0.00 |
| 14 | 08/05 | 11:00 | 81 | 71 | 72 | 29.74 | SSW | 10 | 0.00 |
| 15 | 08/05 | 10:00 | 79 | 69 | 74 | 29.75 | SW | 4 | 0.00 |
| 16 | 08/05 | 09:00 | 78 | 70 | 77 | 29.74 | SW | 3 | 0.00 |
| 17 | 08/05 | 08:00 | 77 | 71 | 83 | 29.73 | WSW | 2 | 0.00 |
| 18 | 08/05 | 07:00 | 74 | 70 | 90 | 29.72 | W | 2 | 0.00 |
| 19 | 08/05 | 06:00 | 74 | 70 | 90 | 29.73 | WSW | 2 | 0.00 |
| 20 | 08/05 | 05:00 | 75 | 71 | 90 | 29.75 | SW | 3 | 0.00 |
| 21 | 08/05 | 04:00 | 74 | 72 | 94 | 29.73 | NW | 3 | 0.00 |
| 22 | 08/05 | 03:00 | 75 | 72 | 92 | 29.73 | WSW | 2 | 0.00 |
| 23 | 08/05 | 02:00 | 75 | 72 | 91 | 29.74 | W | 4 | 0.00 |
| 24 | 08/05 | 01:00 | 75 | 72 | 91 | 29.74 | SW | 4 | 0.00 |